Oroshaza, Hungary
Current Conditions -  °F | °C
As of 2:15 PM on Sunday 23 Nov 2014 (Local Time) from LHUD Reporting Station
Broken Clouds Broken Clouds  
Wind Chill: 44°   Ceiling: 3300
Heat Index: 46°   Visibility: 6mi
Dew Point: 30°   Wind: 5mph
Humidity: 53%   Direction: 20°NNE
Pressure: 30.42"   Gusts: NA
Location:  46.57°N, 20.67°E
Report Text: LHUD 231215Z 02004KT 9999 BKN033 08/M01 Q1030
Loading
Personal Weather Stations






























Interactive Weather Map New forecast layout! Learn more

10-Day Weather Forecast

Advertisements
Track Severe Weather on mobile